createdAt,value
2023-05-10T00:00:49.603Z,47.61
2023-05-10T00:03:17.438Z,47.78
2023-05-10T00:05:44.892Z,48.02
2023-05-10T00:08:12.364Z,48.16
2023-05-10T00:10:40.105Z,48.24
2023-05-10T00:13:07.645Z,48.52
2023-05-10T00:15:35.675Z,48.64
2023-05-10T00:18:03.471Z,48.97
2023-05-10T00:20:30.926Z,49.38
2023-05-10T00:22:58.385Z,49.70
2023-05-10T00:25:26.067Z,49.71
2023-05-10T00:27:56.140Z,49.88
2023-05-10T00:30:23.806Z,50.05
2023-05-10T00:32:52.696Z,50.35
2023-05-10T00:35:20.372Z,50.42
2023-05-10T00:37:48.978Z,50.38
2023-05-10T00:40:16.945Z,50.55
2023-05-10T00:42:45.373Z,50.67
2023-05-10T00:45:13.019Z,51.10
2023-05-10T00:47:40.773Z,51.12
2023-05-10T00:50:09.840Z,51.08
2023-05-10T00:52:38.199Z,51.48
2023-05-10T00:55:07.426Z,51.40
2023-05-10T00:57:34.942Z,51.82
2023-05-10T01:00:03.216Z,51.64
2023-05-10T01:02:30.951Z,51.88
2023-05-10T01:04:58.516Z,51.78
2023-05-10T01:07:26.482Z,51.33
2023-05-10T01:09:54.240Z,51.71
2023-05-10T01:12:21.924Z,52.08
2023-05-10T01:14:49.825Z,52.32
2023-05-10T01:17:17.793Z,52.21
2023-05-10T01:19:45.289Z,52.20
2023-05-10T01:22:31.370Z,51.98
2023-05-10T01:25:20.414Z,51.83
2023-05-10T01:27:59.812Z,51.94
2023-05-10T01:30:59.199Z,52.10
2023-05-10T01:33:30.674Z,52.23
2023-05-10T01:36:13.520Z,52.39
2023-05-10T01:38:51.558Z,52.45
2023-05-10T01:41:29.209Z,52.71
2023-05-10T01:44:02.792Z,52.73
2023-05-10T01:46:38.464Z,52.74
2023-05-10T01:49:10.662Z,52.53
2023-05-10T01:51:54.723Z,52.58
2023-05-10T01:54:24.114Z,52.80
2023-05-10T01:56:58.255Z,52.90
2023-05-10T01:59:29.451Z,53.07
2023-05-10T02:01:59.874Z,53.05
2023-05-10T02:04:28.190Z,53.44
2023-05-10T02:06:56.238Z,53.46
2023-05-10T02:09:24.582Z,53.11
2023-05-10T02:11:52.722Z,53.20
2023-05-10T02:14:20.413Z,53.23
2023-05-10T02:16:48.670Z,53.06
2023-05-10T02:19:16.495Z,53.37
2023-05-10T02:21:44.398Z,53.48
2023-05-10T02:24:12.542Z,53.60
2023-05-10T02:26:40.653Z,53.74
2023-05-10T02:29:09.262Z,53.55
2023-05-10T02:31:37.050Z,53.80
2023-05-10T02:34:07.220Z,53.77
2023-05-10T02:36:34.918Z,53.72
2023-05-10T02:39:03.408Z,53.80
2023-05-10T02:41:32.243Z,53.71
2023-05-10T02:44:03.667Z,53.92
2023-05-10T02:46:31.706Z,53.86
2023-05-10T02:48:59.560Z,53.46
2023-05-10T02:51:29.650Z,53.71
2023-05-10T02:53:58.471Z,53.25
2023-05-10T02:56:30.470Z,53.55
2023-05-10T02:58:58.108Z,53.34
2023-05-10T03:01:25.629Z,53.25
2023-05-10T03:03:53.070Z,53.17
2023-05-10T03:06:20.800Z,53.16
2023-05-10T03:08:48.339Z,52.80
2023-05-10T03:11:41.185Z,52.82
2023-05-10T03:14:11.515Z,52.69
2023-05-10T03:16:48.079Z,52.62
2023-05-10T03:19:25.954Z,52.33
2023-05-10T03:21:54.846Z,52.35
2023-05-10T03:24:24.336Z,51.90
2023-05-10T03:26:53.970Z,52.00
2023-05-10T03:29:21.966Z,51.65
2023-05-10T03:31:49.550Z,51.39
2023-05-10T03:34:18.328Z,51.38
2023-05-10T03:36:46.093Z,51.51
2023-05-10T03:39:13.514Z,51.41
2023-05-10T03:41:41.304Z,51.52
2023-05-10T03:44:09.658Z,51.72
2023-05-10T03:46:37.142Z,51.62
2023-05-10T03:49:04.635Z,51.71
2023-05-10T03:51:32.593Z,51.76
2023-05-10T03:54:00.157Z,51.79
2023-05-10T03:56:27.672Z,51.64
2023-05-10T03:58:55.417Z,51.65
2023-05-10T04:01:22.919Z,51.63
2023-05-10T04:03:50.804Z,51.61
2023-05-10T04:06:18.383Z,51.39
2023-05-10T04:08:46.237Z,51.42
2023-05-10T04:11:14.653Z,51.44
2023-05-10T04:13:42.375Z,51.33
2023-05-10T04:16:09.907Z,51.31
2023-05-10T04:18:37.588Z,51.40
2023-05-10T04:21:04.999Z,51.37
2023-05-10T04:23:32.362Z,51.57
2023-05-10T04:26:01.586Z,51.24
2023-05-10T04:28:29.236Z,51.14
2023-05-10T04:31:04.146Z,51.21
2023-05-10T04:33:32.069Z,51.12
2023-05-10T04:35:59.782Z,50.97
2023-05-10T04:38:27.909Z,50.83
2023-05-10T04:40:55.902Z,51.08
2023-05-10T04:43:23.327Z,50.68
2023-05-10T04:45:51.218Z,50.86
2023-05-10T04:48:18.927Z,50.46
2023-05-10T04:50:46.381Z,50.24
2023-05-10T04:53:15.861Z,50.19
2023-05-10T04:55:43.712Z,50.18
2023-05-10T04:58:11.085Z,49.79
2023-05-10T05:00:38.499Z,50.15
2023-05-10T05:03:06.416Z,50.04
2023-05-10T05:05:33.805Z,49.62
2023-05-10T05:08:01.738Z,49.78
2023-05-10T05:10:29.464Z,49.51
2023-05-10T05:12:57.019Z,49.43
2023-05-10T05:15:24.496Z,49.83
2023-05-10T05:17:52.602Z,49.47
2023-05-10T05:20:20.107Z,49.29
2023-05-10T05:22:47.547Z,48.88
2023-05-10T05:25:16.196Z,49.56
2023-05-10T05:27:43.581Z,49.03
2023-05-10T05:30:11.265Z,48.73
2023-05-10T05:32:39.004Z,48.66
2023-05-10T05:35:07.173Z,48.31
2023-05-10T05:37:35.144Z,48.21
2023-05-10T05:40:03.008Z,49.14
2023-05-10T05:42:32.230Z,48.79
2023-05-10T05:44:59.959Z,47.94
2023-05-10T05:47:27.728Z,48.25
2023-05-10T05:49:56.279Z,47.61
2023-05-10T05:52:23.683Z,47.84
2023-05-10T05:54:51.382Z,47.53
2023-05-10T05:57:18.765Z,47.60
2023-05-10T05:59:46.668Z,47.58
2023-05-10T06:02:14.359Z,47.29
2023-05-10T06:04:44.651Z,47.05
2023-05-10T06:07:12.280Z,46.65
2023-05-10T06:09:39.629Z,46.57
2023-05-10T06:12:07.303Z,46.22
2023-05-10T06:14:34.682Z,45.92
2023-05-10T06:17:05.081Z,45.50
2023-05-10T06:19:32.879Z,45.49
2023-05-10T06:22:00.367Z,44.75
2023-05-10T06:24:28.469Z,44.29
2023-05-10T06:26:56.147Z,43.98
2023-05-10T06:29:23.521Z,43.56
2023-05-10T06:31:51.046Z,43.29
2023-05-10T06:34:18.781Z,43.04
2023-05-10T06:36:46.460Z,42.77
2023-05-10T06:39:13.943Z,41.93
2023-05-10T06:41:41.999Z,41.43
2023-05-10T06:44:09.478Z,40.91
2023-05-10T06:46:37.394Z,40.62
2023-05-10T06:49:05.546Z,40.83
2023-05-10T06:51:33.857Z,40.56
2023-05-10T06:54:01.264Z,40.19
2023-05-10T06:56:28.971Z,39.66
2023-05-10T06:58:56.908Z,39.23
2023-05-10T07:03:52.060Z,38.60
2023-05-10T07:06:32.176Z,38.31
2023-05-10T07:09:01.568Z,38.17
2023-05-10T07:11:28.995Z,38.06
2023-05-10T07:13:56.423Z,37.59
2023-05-10T07:16:24.354Z,37.42
2023-05-10T07:18:51.835Z,37.20
2023-05-10T07:21:19.308Z,37.59
2023-05-10T07:23:47.052Z,37.86
2023-05-10T07:26:15.868Z,37.64
2023-05-10T07:28:43.327Z,37.85
2023-05-10T07:31:11.110Z,37.60
2023-05-10T07:33:38.926Z,38.05
2023-05-10T07:36:06.444Z,37.96
2023-05-10T07:38:34.249Z,37.54
2023-05-10T07:41:01.688Z,37.67
2023-05-10T07:43:29.122Z,37.54
2023-05-10T07:45:58.449Z,37.65
2023-05-10T07:48:26.134Z,37.28
2023-05-10T07:50:53.527Z,37.47
2023-05-10T07:53:21.734Z,37.22
2023-05-10T07:55:52.790Z,37.22
2023-05-10T07:58:20.157Z,37.14
2023-05-10T08:00:47.819Z,37.25
2023-05-10T08:03:15.525Z,36.51
2023-05-10T08:05:43.174Z,36.88
2023-05-10T08:08:10.553Z,37.13
2023-05-10T08:10:38.293Z,37.44
2023-05-10T08:13:05.702Z,37.49
2023-05-10T08:15:33.182Z,37.67
2023-05-10T08:18:01.001Z,36.81
2023-05-10T08:20:28.429Z,36.49
2023-05-10T08:22:56.189Z,36.91
2023-05-10T08:25:23.866Z,37.03
2023-05-10T08:27:51.674Z,37.46
2023-05-10T08:30:19.129Z,37.41
2023-05-10T08:32:46.829Z,37.03
2023-05-10T08:35:14.396Z,36.79
2023-05-10T08:37:41.979Z,36.67
2023-05-10T08:40:11.648Z,36.21
2023-05-10T08:42:41.727Z,36.74
2023-05-10T08:45:10.695Z,36.28
2023-05-10T08:47:39.043Z,36.44
2023-05-10T08:50:07.931Z,36.52
2023-05-10T08:52:40.003Z,36.09
2023-05-10T08:55:08.210Z,35.83
2023-05-10T08:57:36.977Z,35.58
2023-05-10T09:00:04.824Z,35.62
2023-05-10T09:02:32.644Z,34.52
2023-05-10T09:05:00.183Z,34.24
2023-05-10T09:07:28.125Z,33.98
2023-05-10T09:09:55.830Z,33.73
2023-05-10T09:12:24.038Z,33.72
2023-05-10T09:14:52.998Z,34.02
2023-05-10T09:17:21.055Z,34.42
2023-05-10T09:19:48.509Z,33.88
2023-05-10T09:22:15.936Z,33.20
2023-05-10T09:24:46.225Z,33.57
2023-05-10T09:27:13.592Z,33.46
2023-05-10T09:29:42.737Z,33.41
2023-05-10T09:32:10.478Z,33.70
2023-05-10T09:34:40.926Z,33.93
2023-05-10T09:37:09.213Z,34.56
2023-05-10T09:39:38.714Z,34.02
2023-05-10T09:42:08.598Z,34.24
2023-05-10T09:44:36.785Z,34.54
2023-05-10T09:47:05.250Z,34.73
2023-05-10T09:49:32.835Z,34.39
2023-05-10T09:52:05.063Z,33.75
2023-05-10T09:54:33.908Z,34.50
2023-05-10T09:57:01.867Z,34.76
2023-05-10T09:59:30.256Z,33.99
2023-05-10T10:01:59.553Z,33.56
2023-05-10T10:04:28.966Z,33.48
2023-05-10T10:07:06.203Z,33.35
2023-05-10T10:09:35.163Z,33.36
2023-05-10T10:12:03.662Z,32.69
2023-05-10T10:14:31.245Z,33.10
2023-05-10T10:17:08.197Z,33.38
2023-05-10T10:19:37.102Z,33.67
2023-05-10T10:22:05.671Z,33.72
2023-05-10T10:24:33.176Z,32.98
2023-05-10T10:27:29.721Z,33.20
2023-05-10T10:30:07.411Z,32.69
2023-05-10T10:33:10.211Z,33.17
2023-05-10T10:35:46.853Z,33.70
2023-05-10T10:38:14.894Z,33.08
2023-05-10T10:40:42.314Z,33.32
2023-05-10T10:43:27.729Z,33.50
2023-05-10T10:46:15.031Z,33.17
2023-05-10T10:48:48.871Z,33.32
2023-05-10T10:51:16.383Z,33.34
2023-05-10T10:53:44.140Z,33.11
2023-05-10T10:56:14.432Z,32.72
2023-05-10T10:58:42.631Z,32.58
2023-05-10T11:01:18.463Z,31.83
2023-05-10T11:04:01.100Z,31.92
2023-05-10T11:06:33.525Z,32.02
2023-05-10T11:09:06.827Z,32.96
2023-05-10T11:11:36.283Z,32.28
2023-05-10T11:14:05.387Z,31.43
2023-05-10T11:16:45.749Z,31.44
2023-05-10T11:19:15.208Z,31.15
2023-05-10T11:21:54.980Z,31.33
2023-05-10T11:24:24.098Z,32.07
2023-05-10T11:26:54.793Z,32.12
2023-05-10T11:29:22.505Z,31.67
2023-05-10T11:31:52.439Z,31.41
2023-05-10T11:34:39.603Z,31.73
2023-05-10T11:37:07.275Z,32.35
2023-05-10T11:39:34.963Z,32.65
2023-05-10T11:42:02.603Z,32.30
2023-05-10T11:44:32.251Z,32.11
2023-05-10T11:47:03.171Z,32.29
2023-05-10T11:49:31.032Z,32.57
2023-05-10T11:52:08.341Z,32.26
2023-05-10T11:54:36.301Z,32.53
2023-05-10T11:57:04.163Z,32.17
2023-05-10T11:59:31.632Z,32.23
2023-05-10T12:01:59.484Z,31.80
2023-05-10T12:04:27.626Z,31.93
2023-05-10T12:06:55.100Z,32.68
2023-05-10T12:09:35.525Z,32.38
2023-05-10T12:12:10.745Z,32.09
2023-05-10T12:14:38.188Z,32.01
2023-05-10T12:17:05.643Z,32.07
2023-05-10T12:19:40.078Z,32.18
2023-05-10T12:22:07.693Z,31.84
2023-05-10T12:24:36.533Z,31.87
2023-05-10T12:27:09.310Z,31.92
2023-05-10T12:29:37.112Z,31.18
2023-05-10T12:32:04.857Z,30.91
2023-05-10T12:34:32.998Z,31.48
2023-05-10T12:37:01.507Z,31.10
2023-05-10T12:39:45.619Z,31.33
2023-05-10T12:42:13.290Z,31.15
2023-05-10T12:44:41.060Z,31.70
2023-05-10T12:47:08.545Z,31.77
2023-05-10T12:49:36.364Z,32.29
2023-05-10T12:52:03.795Z,32.13
2023-05-10T12:54:31.433Z,32.16
2023-05-10T12:56:59.123Z,32.38
2023-05-10T12:59:26.477Z,32.04
2023-05-10T13:01:53.816Z,31.53
2023-05-10T13:04:21.495Z,31.56
2023-05-10T13:06:48.918Z,31.37
2023-05-10T13:09:16.388Z,31.36
2023-05-10T13:11:44.082Z,30.98
2023-05-10T13:14:11.687Z,31.37
2023-05-10T13:16:39.164Z,31.36
2023-05-10T13:19:06.933Z,31.33
2023-05-10T13:21:34.326Z,30.69
2023-05-10T13:24:02.335Z,30.68
2023-05-10T13:26:30.413Z,31.08
2023-05-10T13:28:57.878Z,30.29
2023-05-10T13:31:25.739Z,30.02
2023-05-10T13:33:53.567Z,30.65
2023-05-10T13:36:21.091Z,30.01
2023-05-10T13:38:48.480Z,30.52
2023-05-10T13:41:16.162Z,29.96
2023-05-10T13:43:43.537Z,30.55
2023-05-10T13:46:11.500Z,29.79
2023-05-10T13:48:39.323Z,29.64
2023-05-10T13:51:06.754Z,29.70
2023-05-10T13:53:34.309Z,29.73
2023-05-10T13:56:03.159Z,30.02
2023-05-10T13:58:30.578Z,29.98
2023-05-10T14:00:58.019Z,29.71
2023-05-10T14:03:25.817Z,29.21
2023-05-10T14:05:53.277Z,29.11
2023-05-10T14:08:21.144Z,28.37
2023-05-10T14:10:49.721Z,28.67
2023-05-10T14:13:17.220Z,29.00
2023-05-10T14:15:44.650Z,28.00
2023-05-10T14:18:12.312Z,27.60
2023-05-10T14:20:39.701Z,27.62
2023-05-10T14:23:08.351Z,27.48
2023-05-10T14:25:37.055Z,27.13
2023-05-10T14:28:04.646Z,26.62
2023-05-10T14:30:32.434Z,27.37
2023-05-10T14:33:02.071Z,26.93
2023-05-10T14:35:31.837Z,26.99
2023-05-10T14:37:59.605Z,26.36
2023-05-10T14:40:27.348Z,26.52
2023-05-10T14:42:54.802Z,26.50
2023-05-10T14:45:22.300Z,25.94
2023-05-10T14:47:51.099Z,25.88
2023-05-10T14:50:32.331Z,26.23
2023-05-10T14:53:04.104Z,25.95
2023-05-10T14:57:59.273Z,26.25
2023-05-10T15:00:28.841Z,26.16
2023-05-10T15:02:56.705Z,26.30
2023-05-10T15:05:24.709Z,26.71
2023-05-10T15:07:52.860Z,26.82
2023-05-10T15:10:20.258Z,26.70
2023-05-10T15:12:47.707Z,26.43
2023-05-10T15:15:16.173Z,26.45
2023-05-10T15:17:43.776Z,27.42
2023-05-10T15:20:11.426Z,27.32
2023-05-10T15:22:39.230Z,27.55
2023-05-10T15:25:07.070Z,28.04
2023-05-10T15:27:34.443Z,27.71
2023-05-10T15:30:02.155Z,27.83
2023-05-10T15:32:30.226Z,28.55
2023-05-10T15:34:57.968Z,28.42
2023-05-10T15:37:25.662Z,28.39
2023-05-10T15:39:53.116Z,28.36
2023-05-10T15:42:20.495Z,28.63
2023-05-10T15:44:51.132Z,28.60
2023-05-10T15:47:18.897Z,28.81
2023-05-10T15:49:46.319Z,28.29
2023-05-10T15:52:14.009Z,28.51
2023-05-10T15:54:41.652Z,28.38
2023-05-10T15:57:09.212Z,28.28
2023-05-10T15:59:37.767Z,28.44
2023-05-10T16:02:05.270Z,28.53
2023-05-10T16:04:33.138Z,28.08
2023-05-10T16:07:00.614Z,28.27
2023-05-10T16:09:28.233Z,28.31
2023-05-10T16:11:56.836Z,28.49
2023-05-10T16:14:24.754Z,28.45
2023-05-10T16:16:52.283Z,28.71
2023-05-10T16:19:20.103Z,28.83
2023-05-10T16:21:47.672Z,28.70
2023-05-10T16:24:15.062Z,29.00
2023-05-10T16:26:43.294Z,28.95
2023-05-10T16:29:10.969Z,29.25
2023-05-10T16:31:38.363Z,28.87
2023-05-10T16:34:06.159Z,28.77
2023-05-10T16:36:33.991Z,28.88
2023-05-10T16:39:01.390Z,28.88
2023-05-10T16:41:29.098Z,28.94
2023-05-10T16:43:57.624Z,29.08
2023-05-10T16:46:25.312Z,28.85
2023-05-10T16:48:53.077Z,28.64
2023-05-10T16:51:20.525Z,28.70
2023-05-10T16:53:48.369Z,28.98
2023-05-10T16:56:18.336Z,28.88
2023-05-10T16:58:47.576Z,29.09
2023-05-10T17:01:15.182Z,29.16
2023-05-10T17:03:43.505Z,29.20
2023-05-10T17:06:12.151Z,29.21
2023-05-10T17:08:39.962Z,29.28
2023-05-10T17:11:08.076Z,29.53
2023-05-10T17:13:35.586Z,29.58
2023-05-10T17:16:05.955Z,29.90
2023-05-10T17:18:34.079Z,30.27
2023-05-10T17:21:01.936Z,30.71
2023-05-10T17:23:30.474Z,31.05
2023-05-10T17:26:00.221Z,31.12
2023-05-10T17:28:29.137Z,31.35
2023-05-10T17:30:57.870Z,31.41
2023-05-10T17:33:25.686Z,31.69
2023-05-10T17:35:53.557Z,31.79
2023-05-10T17:38:21.170Z,31.91
2023-05-10T17:40:48.906Z,32.23
2023-05-10T17:43:16.446Z,32.53
2023-05-10T17:45:46.633Z,32.83
2023-05-10T17:48:14.472Z,33.11
2023-05-10T17:50:43.406Z,33.09
2023-05-10T17:53:11.080Z,33.36
2023-05-10T17:55:42.025Z,33.73
2023-05-10T17:58:12.707Z,34.07
2023-05-10T18:00:40.586Z,34.26
2023-05-10T18:03:08.452Z,34.21
2023-05-10T18:05:39.350Z,34.30
2023-05-10T18:08:07.555Z,34.68
2023-05-10T18:10:40.640Z,34.76
2023-05-10T18:13:09.327Z,34.91
2023-05-10T18:15:37.471Z,34.72
2023-05-10T18:18:05.249Z,34.95
2023-05-10T18:20:32.737Z,34.98
2023-05-10T18:23:00.421Z,35.13
2023-05-10T18:25:27.880Z,35.02
2023-05-10T18:27:56.013Z,35.22
2023-05-10T18:30:23.920Z,35.25
2023-05-10T18:32:51.740Z,35.60
2023-05-10T18:35:19.510Z,35.64
2023-05-10T18:37:48.609Z,35.69
2023-05-10T18:40:17.312Z,35.81
2023-05-10T18:42:46.515Z,36.13
2023-05-10T18:45:14.487Z,36.17
2023-05-10T18:47:42.003Z,36.48
2023-05-10T18:50:10.096Z,36.19
2023-05-10T18:52:37.850Z,36.52
2023-05-10T18:55:06.094Z,36.41
2023-05-10T18:57:39.493Z,36.25
2023-05-10T19:00:10.294Z,36.10
2023-05-10T19:02:40.993Z,36.23
2023-05-10T19:05:09.458Z,36.23
2023-05-10T19:07:37.006Z,35.94
2023-05-10T19:10:05.070Z,36.53
2023-05-10T19:12:32.974Z,36.31
2023-05-10T19:15:00.398Z,36.27
2023-05-10T19:17:30.378Z,35.88
2023-05-10T19:19:59.549Z,36.07
2023-05-10T19:22:43.551Z,35.79
2023-05-10T19:25:17.089Z,36.25
2023-05-10T19:27:45.072Z,36.18
2023-05-10T19:30:12.840Z,36.33
2023-05-10T19:32:43.970Z,36.02
2023-05-10T19:35:12.699Z,36.38
2023-05-10T19:37:40.648Z,35.93
2023-05-10T19:40:08.791Z,35.95
2023-05-10T19:42:36.171Z,35.98
2023-05-10T19:45:04.071Z,35.76
2023-05-10T19:47:31.582Z,36.26
2023-05-10T19:49:59.115Z,36.53
2023-05-10T19:52:26.797Z,36.49
2023-05-10T19:54:54.515Z,36.58
2023-05-10T19:57:21.954Z,36.40
2023-05-10T19:59:49.661Z,36.58
2023-05-10T20:02:17.106Z,36.68
2023-05-10T20:04:45.135Z,36.66
2023-05-10T20:07:12.840Z,36.40
2023-05-10T20:09:40.324Z,36.58
2023-05-10T20:12:08.033Z,36.90
2023-05-10T20:14:35.453Z,36.64
2023-05-10T20:17:02.852Z,36.57
2023-05-10T20:19:30.538Z,36.93
2023-05-10T20:21:58.738Z,37.41
2023-05-10T20:24:26.516Z,37.14
2023-05-10T20:26:54.538Z,37.42
2023-05-10T20:29:22.087Z,37.63
2023-05-10T20:31:49.498Z,37.55
2023-05-10T20:34:17.337Z,37.79
2023-05-10T20:36:44.780Z,38.07
2023-05-10T20:39:12.192Z,38.13
2023-05-10T20:41:39.913Z,38.54
2023-05-10T20:44:07.409Z,38.66
2023-05-10T20:46:34.982Z,38.94
2023-05-10T20:49:02.806Z,39.05
2023-05-10T20:51:30.494Z,38.42
2023-05-10T20:53:57.955Z,39.18
2023-05-10T20:56:26.776Z,39.68
2023-05-10T20:58:54.206Z,39.61
2023-05-10T21:01:21.677Z,39.54
2023-05-10T21:03:49.378Z,39.81
2023-05-10T21:06:16.786Z,39.87
2023-05-10T21:08:44.160Z,39.94
2023-05-10T21:11:11.879Z,39.94
2023-05-10T21:13:39.297Z,40.46
2023-05-10T21:16:07.019Z,39.72
2023-05-10T21:18:34.750Z,40.43
2023-05-10T21:21:02.192Z,40.58
2023-05-10T21:23:29.577Z,39.98
2023-05-10T21:25:57.240Z,39.24
2023-05-10T21:28:25.047Z,39.62
2023-05-10T21:30:52.453Z,39.76
2023-05-10T21:33:20.136Z,39.29
2023-05-10T21:35:47.603Z,39.70
2023-05-10T21:38:15.673Z,39.93
2023-05-10T21:40:43.436Z,39.73
2023-05-10T21:43:11.228Z,39.82
2023-05-10T21:45:38.669Z,39.66
2023-05-10T21:48:06.413Z,39.91
2023-05-10T21:50:34.083Z,39.73
2023-05-10T21:53:01.781Z,39.64
2023-05-10T21:55:29.594Z,39.29
2023-05-10T21:57:58.496Z,39.37
2023-05-10T22:00:26.511Z,39.12
2023-05-10T22:02:54.241Z,39.37
2023-05-10T22:05:21.883Z,39.09
2023-05-10T22:07:49.480Z,38.72
2023-05-10T22:10:17.432Z,38.16
2023-05-10T22:12:45.286Z,38.50
2023-05-10T22:15:12.690Z,38.35
2023-05-10T22:17:40.834Z,38.49
2023-05-10T22:20:09.014Z,38.47
2023-05-10T22:22:36.828Z,38.52
2023-05-10T22:25:07.402Z,38.04
2023-05-10T22:27:35.084Z,38.09
2023-05-10T22:30:03.377Z,38.01
2023-05-10T22:32:33.735Z,38.03
2023-05-10T22:35:01.185Z,37.94
2023-05-10T22:37:28.757Z,37.83
2023-05-10T22:39:56.546Z,37.27
2023-05-10T22:42:23.957Z,37.39
2023-05-10T22:44:51.598Z,37.17
2023-05-10T22:47:19.326Z,37.06
2023-05-10T22:49:47.055Z,37.15
2023-05-10T22:52:14.401Z,37.10
2023-05-10T22:54:42.126Z,37.00
2023-05-10T22:57:09.524Z,37.08
2023-05-10T22:59:36.932Z,36.68
2023-05-10T23:02:04.678Z,36.90
2023-05-10T23:04:32.349Z,36.81
2023-05-10T23:06:59.736Z,37.08
2023-05-10T23:09:27.640Z,37.13
2023-05-10T23:11:54.997Z,37.09
2023-05-10T23:14:22.521Z,37.11
2023-05-10T23:16:50.225Z,37.21
2023-05-10T23:19:17.604Z,37.17
2023-05-10T23:21:45.040Z,37.39
2023-05-10T23:24:13.551Z,37.91
2023-05-10T23:26:41.125Z,37.93
2023-05-10T23:29:08.651Z,38.04
2023-05-10T23:31:37.158Z,37.94
2023-05-10T23:34:04.586Z,38.03
2023-05-10T23:36:33.534Z,38.14
2023-05-10T23:39:01.191Z,38.20
2023-05-10T23:41:28.599Z,38.38
2023-05-10T23:43:56.439Z,38.58
2023-05-10T23:46:24.159Z,38.65
2023-05-10T23:48:51.634Z,38.75
2023-05-10T23:51:18.990Z,38.90
2023-05-10T23:53:46.772Z,38.98
2023-05-10T23:56:14.128Z,39.03
2023-05-10T23:58:42.525Z,39.22
